createdAt,value
2023-05-04T00:00:52.713Z,26.24
2023-05-04T00:01:52.722Z,26.22
2023-05-04T00:02:52.818Z,26.24
2023-05-04T00:03:52.898Z,26.25
2023-05-04T00:04:52.755Z,26.22
2023-05-04T00:05:52.655Z,26.21
2023-05-04T00:06:52.663Z,26.22
2023-05-04T00:07:52.666Z,26.24
2023-05-04T00:08:52.631Z,26.24
2023-05-04T00:09:52.643Z,26.22
2023-05-04T00:10:52.677Z,26.24
2023-05-04T00:11:52.692Z,26.24
2023-05-04T00:12:52.714Z,26.22
2023-05-04T00:13:52.633Z,26.19
2023-05-04T00:14:52.616Z,26.22
2023-05-04T00:15:52.658Z,26.24
2023-05-04T00:16:52.604Z,26.19
2023-05-04T00:17:52.725Z,26.21
2023-05-04T00:18:52.562Z,26.22
2023-05-04T00:19:52.579Z,26.21
2023-05-04T00:20:52.606Z,26.22
2023-05-04T00:21:52.589Z,26.22
2023-05-04T00:22:52.543Z,26.22
2023-05-04T00:23:52.565Z,26.18
2023-05-04T00:24:52.529Z,26.21
2023-05-04T00:25:52.503Z,26.21
2023-05-04T00:26:52.520Z,26.19
2023-05-04T00:27:52.574Z,26.22
2023-05-04T00:28:52.603Z,26.21
2023-05-04T00:29:52.655Z,26.17
2023-05-04T00:30:52.676Z,26.18
2023-05-04T00:31:52.828Z,26.19
2023-05-04T00:32:52.832Z,26.19
2023-05-04T00:33:52.852Z,26.18
2023-05-04T00:34:52.892Z,26.21
2023-05-04T00:35:52.950Z,26.19
2023-05-04T00:36:53.010Z,26.19
2023-05-04T00:37:53.004Z,26.19
2023-05-04T00:38:53.084Z,26.19
2023-05-04T00:39:53.119Z,26.18
2023-05-04T00:40:53.139Z,26.18
2023-05-04T00:41:53.239Z,26.19
2023-05-04T00:42:53.207Z,26.19
2023-05-04T00:43:53.280Z,26.21
2023-05-04T00:44:53.364Z,26.17
2023-05-04T00:45:53.364Z,26.19
2023-05-04T00:46:53.503Z,26.18
2023-05-04T00:47:53.498Z,26.19
2023-05-04T00:48:53.484Z,26.19
2023-05-04T00:49:53.558Z,26.18
2023-05-04T00:50:53.608Z,26.18
2023-05-04T00:51:53.641Z,26.18
2023-05-04T00:52:53.722Z,26.17
2023-05-04T00:53:53.787Z,26.18
2023-05-04T00:54:53.846Z,26.17
2023-05-04T00:55:53.845Z,26.17
2023-05-04T00:56:53.925Z,26.19
2023-05-04T00:57:53.978Z,26.17
2023-05-04T00:58:54.062Z,26.17
2023-05-04T00:59:54.031Z,26.18
2023-05-04T01:00:54.097Z,26.18
2023-05-04T01:01:54.178Z,26.17
2023-05-04T01:02:54.300Z,26.18
2023-05-04T01:03:54.227Z,26.18
2023-05-04T01:04:54.233Z,26.19
2023-05-04T01:05:54.321Z,26.19
2023-05-04T01:06:54.393Z,26.15
2023-05-04T01:07:54.408Z,26.14
2023-05-04T01:08:54.447Z,26.15
2023-05-04T01:09:54.483Z,26.18
2023-05-04T01:10:54.529Z,26.17
2023-05-04T01:11:54.585Z,26.15
2023-05-04T01:12:54.676Z,26.15
2023-05-04T01:13:54.680Z,26.17
2023-05-04T01:14:54.721Z,26.15
2023-05-04T01:15:54.760Z,26.19
2023-05-04T01:16:54.860Z,26.18
2023-05-04T01:17:54.942Z,26.17
2023-05-04T01:18:54.930Z,26.17
2023-05-04T01:19:54.988Z,26.17
2023-05-04T01:20:55.047Z,26.15
2023-05-04T01:21:55.057Z,26.17
2023-05-04T01:22:55.108Z,26.17
2023-05-04T01:23:55.157Z,26.14
2023-05-04T01:24:55.231Z,26.17
2023-05-04T01:25:55.286Z,26.15
2023-05-04T01:26:55.302Z,26.17
2023-05-04T01:27:55.354Z,26.14
2023-05-04T01:28:55.401Z,26.17
2023-05-04T01:29:55.484Z,26.17
2023-05-04T01:30:55.541Z,26.15
2023-05-04T01:31:55.533Z,26.17
2023-05-04T01:32:55.617Z,26.14
2023-05-04T01:33:55.639Z,26.14
2023-05-04T01:34:55.757Z,26.15
2023-05-04T01:35:55.759Z,26.15
2023-05-04T01:36:55.758Z,26.14
2023-05-04T01:37:55.829Z,26.17
2023-05-04T01:38:55.872Z,26.18
2023-05-04T01:39:55.921Z,26.15
2023-05-04T01:40:55.992Z,26.14
2023-05-04T01:41:56.003Z,26.15
2023-05-04T01:42:56.120Z,26.14
2023-05-04T01:43:56.109Z,26.12
2023-05-04T01:44:56.196Z,26.14
2023-05-04T01:45:56.263Z,26.14
2023-05-04T01:46:56.244Z,26.14
2023-05-04T01:47:56.371Z,26.15
2023-05-04T01:48:56.350Z,26.14
2023-05-04T01:49:56.423Z,26.15
2023-05-04T01:50:56.437Z,26.14
2023-05-04T01:51:56.474Z,26.14
2023-05-04T01:52:56.538Z,26.15
2023-05-04T01:53:56.602Z,26.12
2023-05-04T01:54:56.638Z,26.12
2023-05-04T01:55:56.679Z,26.15
2023-05-04T01:56:56.747Z,26.12
2023-05-04T01:57:56.777Z,26.12
2023-05-04T01:58:56.839Z,26.17
2023-05-04T01:59:56.902Z,26.14
2023-05-04T02:00:56.949Z,26.11
2023-05-04T02:01:57.030Z,26.12
2023-05-04T02:02:57.134Z,26.14
2023-05-04T02:03:57.198Z,26.11
2023-05-04T02:04:57.186Z,26.14
2023-05-04T02:05:57.248Z,26.12
2023-05-04T02:06:57.301Z,26.11
2023-05-04T02:07:57.332Z,26.12
2023-05-04T02:08:57.429Z,26.14
2023-05-04T02:09:57.421Z,26.12
2023-05-04T02:10:57.503Z,26.12
2023-05-04T02:11:57.534Z,26.11
2023-05-04T02:12:57.643Z,26.12
2023-05-04T02:13:57.672Z,26.12
2023-05-04T02:14:57.703Z,26.14
2023-05-04T02:15:57.797Z,26.09
2023-05-04T02:16:57.806Z,26.12
2023-05-04T02:17:57.918Z,26.12
2023-05-04T02:18:57.936Z,26.11
2023-05-04T02:19:57.943Z,26.12
2023-05-04T02:20:58.031Z,26.09
2023-05-04T02:21:58.063Z,26.08
2023-05-04T02:22:58.128Z,26.11
2023-05-04T02:23:58.234Z,26.11
2023-05-04T02:24:58.244Z,26.09
2023-05-04T02:25:58.295Z,26.09
2023-05-04T02:26:58.353Z,26.08
2023-05-04T02:27:58.379Z,26.11
2023-05-04T02:28:58.477Z,26.09
2023-05-04T02:29:58.529Z,26.09
2023-05-04T02:30:58.603Z,26.09
2023-05-04T02:31:58.802Z,26.11
2023-05-04T02:32:58.741Z,26.09
2023-05-04T02:33:58.761Z,26.08
2023-05-04T02:34:58.848Z,26.09
2023-05-04T02:35:58.885Z,26.11
2023-05-04T02:36:58.927Z,26.12
2023-05-04T02:37:58.989Z,26.09
2023-05-04T02:38:59.042Z,26.08
2023-05-04T02:39:59.097Z,26.09
2023-05-04T02:40:59.189Z,26.11
2023-05-04T02:41:59.228Z,26.09
2023-05-04T02:42:59.289Z,26.08
2023-05-04T02:43:59.359Z,26.08
2023-05-04T02:44:59.404Z,26.09
2023-05-04T02:45:59.437Z,26.09
2023-05-04T02:46:59.532Z,26.08
2023-05-04T02:47:59.654Z,26.09
2023-05-04T02:48:59.624Z,26.09
2023-05-04T02:49:59.694Z,26.08
2023-05-04T02:50:59.736Z,26.11
2023-05-04T02:51:59.862Z,26.09
2023-05-04T02:52:59.870Z,26.08
2023-05-04T02:53:59.940Z,26.09
2023-05-04T02:54:59.990Z,26.08
2023-05-04T02:56:00.086Z,26.09
2023-05-04T02:57:00.127Z,26.08
2023-05-04T02:58:00.180Z,26.07
2023-05-04T02:59:00.220Z,26.08
2023-05-04T03:00:00.283Z,26.08
2023-05-04T03:01:00.400Z,26.08
2023-05-04T03:02:00.365Z,26.09
2023-05-04T03:03:00.497Z,26.07
2023-05-04T03:04:00.577Z,26.08
2023-05-04T03:05:00.564Z,26.05
2023-05-04T03:06:00.637Z,26.07
2023-05-04T03:07:00.671Z,26.05
2023-05-04T03:08:00.718Z,26.07
2023-05-04T03:09:00.796Z,26.07
2023-05-04T03:10:00.891Z,26.08
2023-05-04T03:11:00.913Z,26.07
2023-05-04T03:12:01.036Z,26.07
2023-05-04T03:13:01.100Z,26.08
2023-05-04T03:14:01.134Z,26.08
2023-05-04T03:15:01.206Z,26.07
2023-05-04T03:16:01.289Z,26.08
2023-05-04T03:17:01.321Z,26.08
2023-05-04T03:18:01.375Z,26.07
2023-05-04T03:19:01.438Z,26.05
2023-05-04T03:20:01.500Z,26.04
2023-05-04T03:21:01.561Z,26.08
2023-05-04T03:22:01.627Z,26.05
2023-05-04T03:23:01.645Z,26.07
2023-05-04T03:24:01.726Z,26.08
2023-05-04T03:25:01.794Z,26.05
2023-05-04T03:26:01.796Z,26.07
2023-05-04T03:27:01.906Z,26.08
2023-05-04T03:28:01.951Z,26.05
2023-05-04T03:29:02.017Z,26.05
2023-05-04T03:30:02.125Z,26.05
2023-05-04T03:31:02.155Z,26.07
2023-05-04T03:32:02.265Z,26.04
2023-05-04T03:33:02.248Z,26.05
2023-05-04T03:34:02.312Z,26.05
2023-05-04T03:35:04.045Z,26.07
2023-05-04T03:36:02.476Z,26.05
2023-05-04T03:37:02.519Z,26.05
2023-05-04T03:38:02.601Z,26.05
2023-05-04T03:39:02.636Z,26.05
2023-05-04T03:40:02.902Z,26.05
2023-05-04T03:41:02.713Z,26.05
2023-05-04T03:42:02.812Z,26.07
2023-05-04T03:43:02.872Z,26.02
2023-05-04T03:44:02.970Z,26.04
2023-05-04T03:45:04.350Z,26.07
2023-05-04T03:46:03.042Z,26.04
2023-05-04T03:47:03.103Z,26.05
2023-05-04T03:48:03.171Z,26.05
2023-05-04T03:49:03.245Z,26.05
2023-05-04T03:50:03.410Z,26.05
2023-05-04T03:51:03.393Z,26.08
2023-05-04T03:52:03.446Z,26.05
2023-05-04T03:53:03.488Z,26.05
2023-05-04T03:54:03.565Z,26.05
2023-05-04T03:55:03.612Z,26.05
2023-05-04T03:56:03.714Z,26.02
2023-05-04T03:57:03.752Z,26.05
2023-05-04T03:58:03.828Z,26.04
2023-05-04T03:59:03.852Z,26.05
2023-05-04T04:00:04.215Z,26.02
2023-05-04T04:01:03.992Z,26.04
2023-05-04T04:02:04.122Z,26.02
2023-05-04T04:03:04.145Z,26.05
2023-05-04T04:04:04.224Z,26.07
2023-05-04T04:05:04.262Z,26.05
2023-05-04T04:06:04.323Z,26.07
2023-05-04T04:07:04.377Z,26.12
2023-05-04T04:08:04.432Z,26.12
2023-05-04T04:09:04.495Z,26.11
2023-05-04T04:10:04.768Z,26.14
2023-05-04T04:11:04.645Z,26.14
2023-05-04T04:12:04.681Z,26.17
2023-05-04T04:13:04.754Z,26.18
2023-05-04T04:14:04.789Z,26.19
2023-05-04T04:15:04.831Z,26.19
2023-05-04T04:16:04.923Z,26.18
2023-05-04T04:17:05.064Z,26.19
2023-05-04T04:18:05.008Z,26.18
2023-05-04T04:19:05.034Z,26.18
2023-05-04T04:20:05.280Z,26.15
2023-05-04T04:21:05.113Z,26.15
2023-05-04T04:22:05.190Z,26.12
2023-05-04T04:23:05.255Z,26.12
2023-05-04T04:24:05.312Z,26.12
2023-05-04T04:25:05.425Z,26.09
2023-05-04T04:26:05.432Z,26.08
2023-05-04T04:27:05.487Z,26.07
2023-05-04T04:28:05.548Z,26.07
2023-05-04T04:29:05.592Z,26.04
2023-05-04T04:30:06.043Z,26.04
2023-05-04T04:31:05.767Z,26.04
2023-05-04T04:32:05.733Z,26.01
2023-05-04T04:33:05.834Z,26.00
2023-05-04T04:34:05.839Z,26.00
2023-05-04T04:35:05.890Z,25.98
2023-05-04T04:36:05.952Z,25.98
2023-05-04T04:37:06.019Z,25.97
2023-05-04T04:38:06.053Z,25.98
2023-05-04T04:39:06.121Z,26.00
2023-05-04T04:40:06.424Z,26.00
2023-05-04T04:41:06.237Z,26.00
2023-05-04T04:42:06.289Z,25.97
2023-05-04T04:43:06.360Z,25.97
2023-05-04T04:44:06.402Z,26.01
2023-05-04T04:45:06.464Z,25.98
2023-05-04T04:46:06.537Z,25.97
2023-05-04T04:47:06.682Z,26.00
2023-05-04T04:48:06.668Z,26.00
2023-05-04T04:49:06.719Z,26.00
2023-05-04T04:50:06.986Z,26.01
2023-05-04T04:51:06.837Z,26.00
2023-05-04T04:52:06.930Z,26.01
2023-05-04T04:53:07.010Z,26.00
2023-05-04T04:54:07.046Z,26.02
2023-05-04T04:55:07.056Z,26.00
2023-05-04T04:56:07.130Z,26.02
2023-05-04T04:57:07.220Z,26.02
2023-05-04T04:58:07.283Z,26.02
2023-05-04T04:59:07.396Z,26.01
2023-05-04T05:00:07.513Z,26.02
2023-05-04T05:01:07.501Z,26.02
2023-05-04T05:02:07.507Z,26.05
2023-05-04T05:03:07.664Z,26.05
2023-05-04T05:04:07.646Z,26.09
2023-05-04T05:05:07.801Z,26.07
2023-05-04T05:06:07.755Z,26.11
2023-05-04T05:07:07.796Z,26.11
2023-05-04T05:08:07.868Z,26.09
2023-05-04T05:09:07.940Z,26.12
2023-05-04T05:10:08.116Z,26.12
2023-05-04T05:11:08.033Z,26.12
2023-05-04T05:12:08.112Z,26.14
2023-05-04T05:13:08.206Z,26.17
2023-05-04T05:14:08.223Z,26.15
2023-05-04T05:15:08.262Z,26.17
2023-05-04T05:16:08.345Z,26.18
2023-05-04T05:17:08.432Z,26.15
2023-05-04T05:18:08.483Z,26.18
2023-05-04T05:19:08.454Z,26.17
2023-05-04T05:20:08.525Z,26.21
2023-05-04T05:21:08.562Z,26.21
2023-05-04T05:22:08.632Z,26.18
2023-05-04T05:23:08.678Z,26.24
2023-05-04T05:24:08.741Z,26.21
2023-05-04T05:25:08.770Z,26.24
2023-05-04T05:26:08.801Z,26.27
2023-05-04T05:27:08.885Z,26.28
2023-05-04T05:28:08.918Z,26.27
2023-05-04T05:29:08.956Z,26.25
2023-05-04T05:30:09.088Z,26.25
2023-05-04T05:31:09.110Z,26.19
2023-05-04T05:32:09.119Z,26.12
2023-05-04T05:33:09.187Z,26.12
2023-05-04T05:34:09.211Z,26.09
2023-05-04T05:35:09.357Z,26.05
2023-05-04T05:36:09.404Z,26.04
2023-05-04T05:37:09.439Z,26.04
2023-05-04T05:38:09.505Z,25.97
2023-05-04T05:39:09.470Z,25.98
2023-05-04T05:40:09.484Z,25.95
2023-05-04T05:41:09.485Z,25.95
2023-05-04T05:42:09.538Z,26.00
2023-05-04T05:43:09.549Z,26.01
2023-05-04T05:44:11.736Z,26.07
2023-05-04T05:45:09.962Z,26.08
2023-05-04T05:46:09.701Z,26.11
2023-05-04T05:47:09.590Z,26.11
2023-05-04T05:48:09.650Z,26.18
2023-05-04T05:49:10.021Z,26.21
2023-05-04T05:50:09.599Z,26.27
2023-05-04T05:51:09.584Z,26.28
2023-05-04T05:52:09.609Z,26.31
2023-05-04T05:53:09.611Z,26.34
2023-05-04T05:54:09.578Z,26.38
2023-05-04T05:55:09.552Z,26.36
2023-05-04T05:56:09.516Z,26.39
2023-05-04T05:57:09.530Z,26.40
2023-05-04T05:58:09.524Z,26.43
2023-05-04T05:59:09.519Z,26.46
2023-05-04T06:00:09.554Z,26.45
2023-05-04T06:01:09.501Z,26.46
2023-05-04T06:02:09.549Z,26.50
2023-05-04T06:03:09.620Z,26.50
2023-05-04T06:04:09.593Z,26.53
2023-05-04T06:05:09.475Z,26.53
2023-05-04T06:06:09.556Z,26.55
2023-05-04T06:07:09.481Z,26.56
2023-05-04T06:08:09.455Z,26.56
2023-05-04T06:09:09.450Z,26.58
2023-05-04T06:10:09.448Z,26.60
2023-05-04T06:11:09.460Z,26.63
2023-05-04T06:12:09.424Z,26.63
2023-05-04T06:13:09.523Z,26.63
2023-05-04T06:14:09.487Z,26.66
2023-05-04T06:15:09.449Z,26.69
2023-05-04T06:16:09.499Z,26.68
2023-05-04T06:17:09.384Z,26.69
2023-05-04T06:18:09.521Z,26.72
2023-05-04T06:19:09.436Z,26.72
2023-05-04T06:20:09.394Z,26.75
2023-05-04T06:21:09.416Z,26.76
2023-05-04T06:22:09.356Z,26.76
2023-05-04T06:23:09.345Z,26.76
2023-05-04T06:24:09.340Z,26.79
2023-05-04T06:25:09.341Z,26.79
2023-05-04T06:26:09.313Z,26.79
2023-05-04T06:27:09.333Z,26.79
2023-05-04T06:28:09.331Z,26.79
2023-05-04T06:29:09.333Z,26.78
2023-05-04T06:30:09.488Z,26.79
2023-05-04T06:31:09.324Z,26.79
2023-05-04T06:32:09.472Z,26.78
2023-05-04T06:33:09.379Z,26.82
2023-05-04T06:34:09.278Z,26.82
2023-05-04T06:35:09.316Z,26.82
2023-05-04T06:36:09.276Z,26.86
2023-05-04T06:37:09.284Z,26.85
2023-05-04T06:38:09.281Z,26.73
2023-05-04T06:39:09.240Z,26.78
2023-05-04T06:40:09.539Z,26.72
2023-05-04T06:41:09.218Z,26.69
2023-05-04T06:42:09.269Z,26.62
2023-05-04T06:43:09.227Z,26.55
2023-05-04T06:44:09.248Z,26.50
2023-05-04T06:45:09.227Z,26.56
2023-05-04T06:46:09.335Z,26.53
2023-05-04T06:47:09.206Z,26.56
2023-05-04T06:48:09.269Z,26.59
2023-05-04T06:49:09.308Z,26.62
2023-05-04T06:50:09.256Z,26.66
2023-05-04T06:51:09.225Z,26.66
2023-05-04T06:52:09.175Z,26.68
2023-05-04T06:53:09.155Z,26.69
2023-05-04T06:54:09.125Z,26.73
2023-05-04T06:55:09.146Z,26.76
2023-05-04T06:56:09.253Z,26.78
2023-05-04T06:57:09.125Z,26.79
2023-05-04T06:58:09.088Z,26.80
2023-05-04T06:59:09.084Z,26.82
2023-05-04T07:00:09.476Z,26.82
2023-05-04T07:01:09.161Z,26.86
2023-05-04T07:02:09.113Z,26.87
2023-05-04T07:03:09.315Z,26.86
2023-05-04T07:04:09.088Z,26.89
2023-05-04T07:05:09.514Z,26.87
2023-05-04T07:06:09.041Z,26.90
2023-05-04T07:07:09.089Z,26.93
2023-05-04T07:08:09.112Z,26.93
2023-05-04T07:09:09.032Z,26.93
2023-05-04T07:10:09.046Z,26.96
2023-05-04T07:11:09.071Z,26.94
2023-05-04T07:12:54.726Z,26.93
2023-05-04T07:13:54.696Z,26.97
2023-05-04T07:14:54.665Z,26.99
2023-05-04T07:15:54.717Z,27.00
2023-05-04T07:16:54.716Z,26.97
2023-05-04T07:17:54.677Z,26.99
2023-05-04T07:18:54.660Z,27.00
2023-05-04T07:19:54.717Z,26.99
2023-05-04T07:21:01.819Z,27.00
2023-05-04T07:21:55.633Z,27.00
2023-05-04T07:22:54.610Z,27.03
2023-05-04T07:23:54.666Z,27.03
2023-05-04T07:24:54.603Z,27.03
2023-05-04T07:25:54.612Z,27.03
2023-05-04T07:26:54.587Z,27.00
2023-05-04T07:27:54.615Z,27.01
2023-05-04T07:28:54.657Z,27.03
2023-05-04T07:29:54.588Z,26.99
2023-05-04T07:30:54.599Z,26.99
2023-05-04T07:31:54.585Z,27.00
2023-05-04T07:32:54.555Z,26.94
2023-05-04T07:33:54.616Z,26.91
2023-05-04T07:34:54.567Z,26.90
2023-05-04T07:35:54.561Z,26.89
2023-05-04T07:36:54.540Z,26.80
2023-05-04T07:37:54.824Z,26.82
2023-05-04T07:38:54.584Z,26.82
2023-05-04T07:39:54.497Z,26.86
2023-05-04T07:40:54.531Z,26.89
2023-05-04T07:41:54.497Z,26.90
2023-05-04T07:42:54.509Z,26.91
2023-05-04T07:43:56.048Z,26.93
2023-05-04T07:44:54.572Z,26.97
2023-05-04T07:45:54.480Z,26.94
2023-05-04T07:46:54.432Z,27.00
2023-05-04T07:47:54.496Z,27.03
2023-05-04T07:48:54.494Z,27.04
2023-05-04T07:49:54.524Z,27.04
2023-05-04T07:50:54.767Z,27.06
2023-05-04T07:51:54.563Z,27.07
2023-05-04T07:52:54.616Z,27.10
2023-05-04T07:53:54.691Z,27.11
2023-05-04T07:54:54.743Z,27.10
2023-05-04T07:55:54.864Z,27.10
2023-05-04T07:56:54.921Z,27.13
2023-05-04T07:57:54.928Z,27.13
2023-05-04T07:58:55.051Z,27.14
2023-05-04T07:59:55.070Z,27.15
2023-05-04T08:00:55.245Z,27.18
2023-05-04T08:01:55.250Z,27.15
2023-05-04T08:02:55.280Z,27.18
2023-05-04T08:03:55.310Z,27.21
2023-05-04T08:04:55.386Z,27.21
2023-05-04T08:05:55.412Z,27.23
2023-05-04T08:06:55.500Z,27.24
2023-05-04T08:07:55.567Z,27.23
2023-05-04T08:08:55.625Z,27.23
2023-05-04T08:09:55.748Z,27.23
2023-05-04T08:11:02.008Z,27.26
2023-05-04T08:11:57.304Z,27.23
2023-05-04T08:12:55.763Z,27.21
2023-05-04T08:13:55.719Z,27.20
2023-05-04T08:14:55.852Z,27.23
2023-05-04T08:15:55.692Z,27.21
2023-05-04T08:16:55.780Z,27.21
2023-05-04T08:17:55.723Z,27.21
2023-05-04T08:18:55.752Z,27.21
2023-05-04T08:19:55.858Z,27.23
2023-05-04T08:20:55.870Z,27.20
2023-05-04T08:21:55.990Z,27.24
2023-05-04T08:22:56.067Z,27.23
2023-05-04T08:23:56.095Z,27.24
2023-05-04T08:24:56.158Z,27.26
2023-05-04T08:25:56.215Z,27.27
2023-05-04T08:27:07.227Z,27.24
2023-05-04T08:27:57.257Z,27.21
2023-05-04T08:28:56.265Z,27.18
2023-05-04T08:29:56.226Z,27.21
2023-05-04T08:30:56.213Z,27.21
2023-05-04T08:31:56.302Z,27.18
2023-05-04T08:32:56.465Z,27.15
2023-05-04T08:33:56.231Z,27.10
2023-05-04T08:34:56.220Z,27.06
2023-05-04T08:35:56.184Z,26.99
2023-05-04T08:36:56.182Z,26.93
2023-05-04T08:37:56.438Z,26.90
2023-05-04T08:38:56.197Z,26.90
2023-05-04T08:39:56.272Z,26.89
2023-05-04T08:40:56.342Z,26.69
2023-05-04T08:41:56.364Z,26.49
2023-05-04T08:42:56.394Z,26.49
2023-05-04T08:43:56.492Z,26.56
2023-05-04T08:44:56.558Z,26.56
2023-05-04T08:45:56.594Z,26.64
2023-05-04T08:46:56.551Z,26.72
2023-05-04T08:47:56.593Z,26.72
2023-05-04T08:48:56.597Z,26.78
2023-05-04T08:49:56.662Z,26.83
2023-05-04T08:50:56.586Z,26.86
2023-05-04T08:51:56.598Z,26.91
2023-05-04T08:52:56.675Z,26.93
2023-05-04T08:53:56.635Z,26.99
2023-05-04T08:54:56.741Z,27.01
2023-05-04T08:55:56.726Z,27.04
2023-05-04T08:56:56.821Z,27.07
2023-05-04T08:57:56.836Z,27.11
2023-05-04T08:58:56.963Z,27.13
2023-05-04T08:59:56.947Z,27.14
2023-05-04T09:00:57.099Z,27.17
2023-05-04T09:01:57.204Z,27.17
2023-05-04T09:02:58.289Z,27.17
2023-05-04T09:03:57.339Z,27.18
2023-05-04T09:04:57.392Z,27.21
2023-05-04T09:05:57.371Z,27.21
2023-05-04T09:06:57.412Z,27.23
2023-05-04T09:07:57.482Z,27.21
2023-05-04T09:08:57.522Z,27.24
2023-05-04T09:09:57.614Z,27.26
2023-05-04T09:10:57.638Z,27.24
2023-05-04T09:11:57.765Z,27.30
2023-05-04T09:12:57.805Z,27.28
2023-05-04T09:13:57.867Z,27.30
2023-05-04T09:14:57.918Z,27.30
2023-05-04T09:15:57.986Z,27.31
2023-05-04T09:16:58.072Z,27.31
2023-05-04T09:17:58.324Z,27.31
2023-05-04T09:18:58.120Z,27.33
2023-05-04T09:19:58.149Z,27.26
2023-05-04T09:20:58.229Z,27.31
2023-05-04T09:21:58.340Z,27.28
2023-05-04T09:22:58.301Z,27.28
2023-05-04T09:23:58.428Z,27.30
2023-05-04T09:24:58.506Z,27.33
2023-05-04T09:25:58.536Z,27.31
2023-05-04T09:26:58.575Z,27.31
2023-05-04T09:27:58.653Z,27.31
2023-05-04T09:28:58.684Z,27.36
2023-05-04T09:29:58.741Z,27.34
2023-05-04T09:30:59.040Z,27.30
2023-05-04T09:31:58.853Z,27.24
2023-05-04T09:32:58.944Z,27.21
2023-05-04T09:33:59.438Z,27.21
2023-05-04T09:34:59.036Z,27.23
2023-05-04T09:35:59.090Z,27.23
2023-05-04T09:36:59.259Z,27.26
2023-05-04T09:37:59.200Z,27.27
2023-05-04T09:38:59.267Z,27.27
2023-05-04T09:39:59.325Z,27.26
2023-05-04T09:40:59.350Z,27.23
2023-05-04T09:41:59.439Z,27.23
2023-05-04T09:42:59.504Z,27.23
2023-05-04T09:43:59.568Z,27.26
2023-05-04T09:44:59.564Z,27.27
2023-05-04T09:45:59.663Z,27.26
2023-05-04T09:46:59.730Z,27.28
2023-05-04T09:47:59.909Z,27.28
2023-05-04T09:48:59.855Z,27.28
2023-05-04T09:49:59.898Z,27.31
2023-05-04T09:50:59.927Z,27.28
2023-05-04T09:51:59.991Z,27.27
2023-05-04T09:53:00.141Z,27.28
2023-05-04T09:54:00.180Z,27.27
2023-05-04T09:55:00.222Z,27.30
2023-05-04T09:56:02.877Z,27.30
2023-05-04T09:57:00.229Z,27.31
2023-05-04T09:58:00.256Z,27.30
2023-05-04T09:59:00.294Z,27.31
2023-05-04T10:00:00.262Z,27.30
2023-05-04T10:01:00.234Z,27.33
2023-05-04T10:02:10.554Z,27.33
2023-05-04T10:03:01.253Z,27.30
2023-05-04T10:04:00.252Z,27.30
2023-05-04T10:05:00.242Z,27.31
2023-05-04T10:06:00.270Z,27.33
2023-05-04T10:07:00.290Z,27.30
2023-05-04T10:08:00.183Z,27.28
2023-05-04T10:09:00.198Z,27.30
2023-05-04T10:10:00.174Z,27.30
2023-05-04T10:11:00.147Z,27.28
2023-05-04T10:12:00.636Z,27.31
2023-05-04T10:13:00.228Z,27.30
2023-05-04T10:14:00.154Z,27.30
2023-05-04T10:15:00.136Z,27.31
2023-05-04T10:16:00.225Z,27.31
2023-05-04T10:17:00.184Z,27.31
2023-05-04T10:18:00.239Z,27.30
2023-05-04T10:19:00.095Z,27.31
2023-05-04T10:20:00.144Z,27.30
2023-05-04T10:21:00.065Z,27.28
2023-05-04T10:22:00.113Z,27.27
2023-05-04T10:23:00.157Z,27.30
2023-05-04T10:24:00.205Z,27.28
2023-05-04T10:25:00.480Z,27.28
2023-05-04T10:26:00.238Z,27.26
2023-05-04T10:27:00.300Z,27.27
2023-05-04T10:28:00.349Z,27.30
2023-05-04T10:29:00.444Z,27.31
2023-05-04T10:30:00.554Z,27.34
2023-05-04T10:31:00.528Z,27.33
2023-05-04T10:32:00.630Z,27.40
2023-05-04T10:33:00.672Z,27.40
2023-05-04T10:34:00.717Z,27.40
2023-05-04T10:35:00.774Z,27.40
2023-05-04T10:36:00.812Z,27.38
2023-05-04T10:37:00.916Z,27.40
2023-05-04T10:38:00.948Z,27.40
2023-05-04T10:39:00.987Z,27.42
2023-05-04T10:40:01.100Z,27.45
2023-05-04T10:41:01.171Z,27.48
2023-05-04T10:42:01.125Z,27.45
2023-05-04T10:43:01.306Z,27.45
2023-05-04T10:44:01.232Z,27.45
2023-05-04T10:45:01.316Z,27.44
2023-05-04T10:46:01.427Z,27.42
2023-05-04T10:47:01.449Z,27.44
2023-05-04T10:48:01.520Z,27.45
2023-05-04T10:49:01.549Z,27.44
2023-05-04T10:50:01.568Z,27.42
2023-05-04T10:51:01.656Z,27.41
2023-05-04T10:52:01.658Z,27.40
2023-05-04T10:53:01.747Z,27.41
2023-05-04T10:54:01.794Z,27.42
2023-05-04T10:55:01.961Z,27.40
2023-05-04T10:56:01.877Z,27.41
2023-05-04T10:57:01.876Z,27.42
2023-05-04T10:58:02.096Z,27.44
2023-05-04T10:59:02.011Z,27.42
2023-05-04T11:00:02.079Z,27.41
2023-05-04T11:01:02.108Z,27.38
2023-05-04T11:02:02.191Z,27.41
2023-05-04T11:03:02.352Z,27.38
2023-05-04T11:04:02.255Z,27.40
2023-05-04T11:05:02.512Z,27.37
2023-05-04T11:06:02.437Z,27.37
2023-05-04T11:07:02.469Z,27.36
2023-05-04T11:08:02.521Z,27.37
2023-05-04T11:09:02.614Z,27.37
2023-05-04T11:10:02.580Z,27.34
2023-05-04T11:11:02.676Z,27.38
2023-05-04T11:12:02.705Z,27.36
2023-05-04T11:13:05.804Z,27.37
2023-05-04T11:14:02.744Z,27.36
2023-05-04T11:15:03.350Z,27.36
2023-05-04T11:16:02.787Z,27.36
2023-05-04T11:17:03.936Z,27.36
2023-05-04T11:18:03.069Z,27.36
2023-05-04T11:19:02.956Z,27.40
2023-05-04T11:20:02.797Z,27.34
2023-05-04T11:21:02.669Z,27.40
2023-05-04T11:22:02.749Z,27.41
2023-05-04T11:23:02.982Z,27.42
2023-05-04T11:24:02.734Z,27.44
2023-05-04T11:25:02.847Z,27.45
2023-05-04T11:26:02.696Z,27.49
2023-05-04T11:27:02.807Z,27.51
2023-05-04T11:28:02.658Z,27.52
2023-05-04T11:29:02.670Z,27.52
2023-05-04T11:30:02.673Z,27.54
2023-05-04T11:31:02.632Z,27.55
2023-05-04T11:32:02.712Z,27.52
2023-05-04T11:33:02.658Z,27.55
2023-05-04T11:34:02.590Z,27.55
2023-05-04T11:35:02.919Z,27.57
2023-05-04T11:36:02.632Z,27.57
2023-05-04T11:37:02.631Z,27.58
2023-05-04T11:38:02.616Z,27.57
2023-05-04T11:39:02.579Z,27.57
2023-05-04T11:40:02.577Z,27.59
2023-05-04T11:41:02.604Z,27.59
2023-05-04T11:42:02.567Z,27.59
2023-05-04T11:43:02.625Z,27.59
2023-05-04T11:44:02.606Z,27.58
2023-05-04T11:45:02.602Z,27.61
2023-05-04T11:46:02.553Z,27.58
2023-05-04T11:47:02.518Z,27.58
2023-05-04T11:48:02.580Z,27.61
2023-05-04T11:49:02.502Z,27.61
2023-05-04T11:50:02.510Z,27.59
2023-05-04T11:51:02.535Z,27.61
2023-05-04T11:52:02.597Z,27.59
2023-05-04T11:53:02.473Z,27.59
2023-05-04T11:54:02.480Z,27.62
2023-05-04T11:55:02.478Z,27.62
2023-05-04T11:56:02.474Z,27.62
2023-05-04T11:57:02.497Z,27.64
2023-05-04T11:58:02.459Z,27.62
2023-05-04T11:59:02.427Z,27.65
2023-05-04T12:00:02.491Z,27.65
2023-05-04T12:01:02.505Z,27.66
2023-05-04T12:02:02.450Z,27.66
2023-05-04T12:03:02.479Z,27.62
2023-05-04T12:04:02.546Z,27.64
2023-05-04T12:05:02.435Z,27.65
2023-05-04T12:06:02.486Z,27.65
2023-05-04T12:07:02.380Z,27.66
2023-05-04T12:08:02.402Z,27.66
2023-05-04T12:09:02.361Z,27.69
2023-05-04T12:10:02.385Z,27.69
2023-05-04T12:11:02.415Z,27.68
2023-05-04T12:12:02.457Z,27.71
2023-05-04T12:13:02.524Z,27.69
2023-05-04T12:14:02.538Z,27.71
2023-05-04T12:15:02.567Z,27.68
2023-05-04T12:16:02.603Z,27.71
2023-05-04T12:17:02.673Z,27.71
2023-05-04T12:18:03.220Z,27.69
2023-05-04T12:19:02.678Z,27.72
2023-05-04T12:20:02.751Z,27.72
2023-05-04T12:21:05.010Z,27.71
2023-05-04T12:22:02.788Z,27.73
2023-05-04T12:23:02.804Z,27.72
2023-05-04T12:24:02.930Z,27.75
2023-05-04T12:25:03.013Z,27.78
2023-05-04T12:26:02.941Z,27.73
2023-05-04T12:27:02.980Z,27.72
2023-05-04T12:28:03.013Z,27.72
2023-05-04T12:29:03.106Z,27.77
2023-05-04T12:30:03.161Z,27.72
2023-05-04T12:31:03.143Z,27.75
2023-05-04T12:32:03.198Z,27.78
2023-05-04T12:33:03.302Z,27.75
2023-05-04T12:34:03.233Z,27.77
2023-05-04T12:35:03.296Z,27.78
2023-05-04T12:36:03.304Z,27.75
2023-05-04T12:37:03.381Z,27.75
2023-05-04T12:38:03.352Z,27.75
2023-05-04T12:39:03.407Z,27.73
2023-05-04T12:41:03.561Z,27.73
2023-05-04T12:42:03.509Z,27.72
2023-05-04T12:43:03.558Z,27.75
2023-05-04T12:44:03.602Z,27.72
2023-05-04T12:45:03.763Z,27.77
2023-05-04T12:46:03.675Z,27.75
2023-05-04T12:47:03.651Z,27.78
2023-05-04T12:48:03.784Z,27.79
2023-05-04T12:49:03.725Z,27.79
2023-05-04T12:50:03.790Z,27.81
2023-05-04T12:51:03.811Z,27.81
2023-05-04T12:52:03.841Z,27.81
2023-05-04T12:53:03.916Z,27.82
2023-05-04T12:54:03.939Z,27.82
2023-05-04T12:55:04.198Z,27.82